Time;durP1;ratioP1;P1;durP2;ratioP2;P2;SDS_P1;SDS_P2;PMS_P1;PMS_P2;Temp;Humidity;BMP_temperature;BMP_pressure;BME280_temperature;BME280_humidity;BME280_pressure;Samples;Min_cycle;Max_cycle;Signal;HPM_P1;HPM_P2
2023/10/02 00:01:51;;;;;;;26.45;5.60;;;;;;;20.51;47.06;100930.09;5052115;28;20052;-76
2023/10/02 00:04:18;;;;;;;24.90;4.97;;;;;;;20.46;47.14;100925.16;5052317;28;20029;-77
2023/10/02 00:07:05;;;;;;;23.23;5.22;;;;;;;20.48;46.86;100934.06;5051132;28;20020;-78
2023/10/02 00:09:34;;;;;;;19.02;5.28;;;;;;;20.46;46.84;100936.09;5052627;28;20095;-78
2023/10/02 00:12:11;;;;;;;13.27;4.55;;;;;;;20.44;46.86;100938.16;5052545;28;20020;-75
2023/10/02 00:14:38;;;;;;;28.83;5.00;;;;;;;20.46;46.59;100937.97;5052024;28;20072;-77
2023/10/02 00:17:06;;;;;;;15.38;4.65;;;;;;;20.40;46.75;100938.69;5052367;28;20024;-76
2023/10/02 00:19:36;;;;;;;20.48;5.10;;;;;;;20.37;46.94;100936.31;5052106;28;20025;-76
2023/10/02 00:22:34;;;;;;;25.55;5.22;;;;;;;20.32;46.87;100939.63;5052183;28;20114;-76
2023/10/02 00:24:57;;;;;;;12.02;4.88;;;;;;;20.09;47.04;100905.91;5051610;28;20025;-76
2023/10/02 00:27:23;;;;;;;34.75;6.47;;;;;;;20.26;47.28;100947.69;5052175;28;20114;-76
2023/10/02 00:29:51;;;;;;;17.88;4.32;;;;;;;20.22;47.35;100944.41;5051480;28;20029;-77
2023/10/02 00:32:19;;;;;;;24.60;7.07;;;;;;;20.16;47.46;100928.75;5051685;28;20131;-78
2023/10/02 00:34:51;;;;;;;24.67;5.68;;;;;;;20.08;47.58;100947.91;5051532;28;20036;-80
2023/10/02 00:37:16;;;;;;;15.65;5.53;;;;;;;20.05;47.95;100954.59;5051771;28;20051;-78
2023/10/02 00:39:51;;;;;;;20.65;6.60;;;;;;;19.96;47.99;100961.13;5051775;28;20032;-77
2023/10/02 00:42:24;;;;;;;16.60;4.82;;;;;;;19.82;47.90;100925.50;5052100;28;20136;-76
2023/10/02 00:45:01;;;;;;;26.85;5.25;;;;;;;19.98;48.00;100964.50;5051282;28;20048;-77
2023/10/02 00:47:38;;;;;;;14.70;5.15;;;;;;;19.95;48.08;100953.09;5016342;28;20045;-77
2023/10/02 00:50:16;;;;;;;25.77;5.93;;;;;;;19.89;48.12;100959.25;5051292;28;20025;-77
2023/10/02 00:52:43;;;;;;;27.83;5.32;;;;;;;19.82;48.23;100955.53;5051627;28;20025;-76
2023/10/02 00:55:12;;;;;;;19.40;5.28;;;;;;;19.61;48.32;100934.28;5051819;28;20519;-76
2023/10/02 00:57:39;;;;;;;25.23;5.60;;;;;;;19.82;48.19;100963.72;5051516;28;20528;-77
2023/10/02 01:00:18;;;;;;;21.58;5.50;;;;;;;19.36;48.41;100903.47;5051540;28;20401;-75
2023/10/02 01:02:51;;;;;;;21.77;4.68;;;;;;;19.77;48.26;100958.81;5035457;28;20028;-76
2023/10/02 01:05:30;;;;;;;14.38;5.03;;;;;;;19.75;48.23;100955.41;5050700;28;20029;-77
2023/10/02 01:07:57;;;;;;;22.17;5.60;;;;;;;19.74;48.13;100955.56;5050972;28;20031;-75
2023/10/02 01:10:29;;;;;;;17.38;4.95;;;;;;;19.73;48.27;100959.31;5050844;28;20036;-76
2023/10/02 01:13:01;;;;;;;14.85;5.20;;;;;;;19.50;48.15;100927.34;5050846;28;20025;-77
2023/10/02 01:15:28;;;;;;;18.88;4.78;;;;;;;19.67;48.17;100954.56;5050686;28;20695;-76
2023/10/02 01:18:21;;;;;;;20.63;5.18;;;;;;;19.60;48.35;100948.13;5050908;28;20171;-76
2023/10/02 01:20:48;;;;;;;10.07;4.38;;;;;;;19.58;48.38;100939.25;5050766;28;20405;-76
2023/10/02 01:23:16;;;;;;;20.23;5.35;;;;;;;19.57;48.17;100943.84;5050912;28;20560;-78
2023/10/02 01:25:49;;;;;;;22.90;5.78;;;;;;;19.53;48.26;100937.91;5050641;28;20044;-75
2023/10/02 01:28:16;;;;;;;14.00;5.35;;;;;;;19.57;48.35;100949.28;5050879;28;20025;-77
2023/10/02 01:30:44;;;;;;;16.00;4.95;;;;;;;19.48;48.51;100937.56;5050844;28;20028;-76
2023/10/02 01:33:22;;;;;;;20.15;5.00;;;;;;;19.51;48.42;100948.13;5049632;28;20033;-77
2023/10/02 01:35:53;;;;;;;16.30;5.05;;;;;;;19.47;48.68;100960.44;5050931;28;20025;-77
2023/10/02 01:38:29;;;;;;;17.00;6.03;;;;;;;19.46;48.49;100961.44;5051014;28;20100;-77
2023/10/02 01:41:04;;;;;;;21.30;5.63;;;;;;;19.41;48.39;100944.75;5050634;28;20032;-78
2023/10/02 01:43:39;;;;;;;16.70;5.50;;;;;;;19.41;48.56;100955.66;5050281;28;20053;-77
2023/10/02 01:46:05;;;;;;;16.65;5.20;;;;;;;19.39;48.18;100949.50;5050572;28;20052;-77
2023/10/02 01:48:44;;;;;;;16.48;5.65;;;;;;;19.43;48.30;100952.75;5032313;28;20120;-76
2023/10/02 01:51:20;;;;;;;11.73;4.60;;;;;;;19.27;48.23;100936.38;5050655;28;20029;-76
2023/10/02 01:53:48;;;;;;;21.90;6.13;;;;;;;19.42;48.21;100967.41;5032370;28;20029;-76
2023/10/02 01:56:15;;;;;;;15.25;4.78;;;;;;;19.44;48.06;100974.41;5050112;28;20105;-77
2023/10/02 01:58:42;;;;;;;12.60;5.03;;;;;;;19.19;48.20;100929.09;5050346;28;20024;-77
2023/10/02 02:01:11;;;;;;;18.42;5.93;;;;;;;19.40;48.13;100986.69;5050250;28;20037;-77
2023/10/02 02:03:41;;;;;;;16.23;4.97;;;;;;;19.42;48.11;100984.63;5050289;28;20033;-77
2023/10/02 02:06:09;;;;;;;18.23;4.53;;;;;;;19.45;47.82;100989.75;5050155;28;20086;-76
2023/10/02 02:08:37;;;;;;;29.05;5.53;;;;;;;19.52;47.76;100996.22;5050320;28;20028;-76
2023/10/02 02:11:16;;;;;;;18.17;5.28;;;;;;;19.58;47.62;100999.28;5050175;28;20033;-77
2023/10/02 02:13:53;;;;;;;22.02;5.32;;;;;;;19.63;47.32;101003.16;5049932;28;20032;-76
2023/10/02 02:16:33;;;;;;;15.30;4.65;;;;;;;19.62;47.25;101001.50;5049837;28;20028;-77
2023/10/02 02:19:05;;;;;;;17.98;4.93;;;;;;;19.61;47.11;100990.72;4998166;28;20035;-77
2023/10/02 02:21:32;;;;;;;27.00;6.07;;;;;;;19.65;47.18;101028.44;5050227;28;20063;-77
2023/10/02 02:24:03;;;;;;;15.93;4.32;;;;;;;19.66;47.13;101023.84;5050350;28;20029;-76
2023/10/02 02:26:31;;;;;;;16.75;4.30;;;;;;;19.71;46.66;101038.66;5050477;28;20064;-76
2023/10/02 02:28:57;;;;;;;20.00;4.20;;;;;;;19.75;46.54;101029.09;5049775;28;20476;-77
2023/10/02 02:31:32;;;;;;;25.85;5.35;;;;;;;19.80;46.31;101028.56;5049364;28;20029;-76
2023/10/02 02:33:57;;;;;;;17.45;4.43;;;;;;;19.84;46.20;101038.13;5049416;28;20481;-78
2023/10/02 02:36:27;;;;;;;21.50;5.45;;;;;;;19.91;46.07;101050.03;5049998;28;20096;-76
2023/10/02 02:39:15;;;;;;;14.50;4.90;;;;;;;19.91;46.26;101050.88;5049439;28;20033;-77
2023/10/02 02:41:45;;;;;;;22.60;4.97;;;;;;;19.98;45.91;101053.75;5049762;28;20358;-76
2023/10/02 02:44:36;;;;;;;11.43;4.90;;;;;;;20.03;45.79;101052.22;5049021;28;20398;-76
2023/10/02 02:47:07;;;;;;;14.80;5.30;;;;;;;20.06;45.60;101053.72;5050241;28;20036;-76
2023/10/02 02:49:48;;;;;;;22.05;4.07;;;;;;;20.15;45.54;101068.22;5049782;28;20033;-76
2023/10/02 02:52:15;;;;;;;18.00;4.45;;;;;;;19.96;45.58;101025.78;5049878;28;20036;-78
2023/10/02 02:54:44;;;;;;;18.77;5.72;;;;;;;20.27;45.26;101075.03;5049831;28;20378;-76
2023/10/02 02:57:09;;;;;;;25.50;5.70;;;;;;;20.24;45.18;101068.03;5049660;28;20025;-76
2023/10/02 02:59:38;;;;;;;11.45;4.88;;;;;;;20.37;44.98;101067.47;5049417;28;20036;-76
2023/10/02 03:02:12;;;;;;;12.32;4.32;;;;;;;20.44;44.81;101091.19;5049701;28;20021;-77
2023/10/02 03:04:38;;;;;;;15.38;4.80;;;;;;;20.29;44.54;101065.63;5049479;28;20122;-75
2023/10/02 03:09:49;;;;;;;21.45;5.50;;;;;;;20.35;44.78;101092.25;5049445;28;20078;-77
2023/10/02 03:12:16;;;;;;;13.63;4.32;;;;;;;20.39;44.99;101104.53;5049532;28;20106;-77
2023/10/02 03:14:43;;;;;;;13.50;4.18;;;;;;;20.40;45.08;101098.03;5049221;28;20043;-75
2023/10/02 03:17:28;;;;;;;17.20;3.65;;;;;;;20.39;45.46;101099.06;5049628;28;20040;-76
2023/10/02 03:19:56;;;;;;;21.33;4.78;;;;;;;20.42;45.43;101092.41;5049041;28;20036;-76
2023/10/02 03:22:24;;;;;;;15.18;4.18;;;;;;;20.27;45.33;101073.16;5048916;28;20083;-76
2023/10/02 03:24:51;;;;;;;8.70;3.83;;;;;;;20.47;45.06;101098.19;5048982;28;20397;-77
2023/10/02 03:27:17;;;;;;;11.05;4.68;;;;;;;20.39;45.00;101109.16;4997555;28;20095;-77
2023/10/02 03:29:43;;;;;;;11.10;3.67;;;;;;;20.28;45.13;101091.25;5031145;28;20064;-77
2023/10/02 03:32:11;;;;;;;24.27;4.97;;;;;;;20.33;45.58;101116.19;5049422;28;20112;-77
2023/10/02 03:34:38;;;;;;;19.17;4.57;;;;;;;20.38;45.04;101113.75;5049101;28;20029;-77
2023/10/02 03:39:59;;;;;;;13.63;3.90;;;;;;;20.25;44.79;101102.50;5048973;28;20541;-76
2023/10/02 03:42:25;;;;;;;15.20;4.30;;;;;;;20.45;44.86;101128.44;5049733;28;20032;-77
2023/10/02 03:44:56;;;;;;;14.43;5.22;;;;;;;20.45;45.20;101136.63;5052299;28;20033;-78
2023/10/02 03:47:23;;;;;;;11.98;6.07;;;;;;;20.49;45.52;101137.97;5052580;28;20520;-76
2023/10/02 03:49:50;;;;;;;19.00;5.03;;;;;;;20.47;45.89;101140.03;5052015;28;20025;-77
2023/10/02 03:52:17;;;;;;;19.60;5.75;;;;;;;20.34;45.98;101114.28;5052478;28;20477;-77
2023/10/02 03:54:46;;;;;;;20.30;4.88;;;;;;;20.47;46.11;101145.50;5034362;28;20532;-76
2023/10/02 04:00:18;;;;;;;14.90;5.18;;;;;;;20.47;45.89;101159.16;5052463;28;20088;-76
2023/10/02 04:02:47;;;;;;;24.00;5.72;;;;;;;20.23;45.88;101137.34;5052658;28;20033;-76
2023/10/02 04:05:42;;;;;;;26.65;6.43;;;;;;;20.45;45.90;101174.03;5051818;28;20028;-77
2023/10/02 04:10:55;;;;;;;21.33;4.97;;;;;;;20.23;46.05;101175.59;5052126;28;20389;-78
2023/10/02 04:13:39;;;;;;;24.98;6.07;;;;;;;20.10;46.24;101161.59;5051816;28;20021;-78
2023/10/02 04:19:02;;;;;;;27.60;5.20;;;;;;;20.13;46.42;101196.75;5054006;28;20036;-77
2023/10/02 04:21:28;;;;;;;21.95;5.28;;;;;;;20.10;47.16;101197.09;5075547;28;20043;-78
2023/10/02 04:23:56;;;;;;;20.70;5.03;;;;;;;20.00;47.56;101186.34;5076858;28;20068;-78
2023/10/02 04:26:24;;;;;;;24.55;5.00;;;;;;;20.08;48.08;101204.63;5026038;28;20037;-77
2023/10/02 04:31:41;;;;;;;21.88;6.38;;;;;;;19.94;48.14;101197.09;5052230;28;20121;-77
2023/10/02 04:34:24;;;;;;;20.65;5.05;;;;;;;20.01;48.14;101189.94;5052881;28;20021;-77
2023/10/02 04:36:51;;;;;;;44.13;7.00;;;;;;;20.02;47.76;101205.31;5051838;28;20032;-77
2023/10/02 04:42:19;;;;;;;41.72;5.88;;;;;;;19.86;48.08;101178.00;5051793;28;20045;-78
2023/10/02 04:44:49;;;;;;;21.52;4.65;;;;;;;20.03;47.59;101226.97;5050922;28;20101;-77
2023/10/02 04:47:20;;;;;;;21.38;5.63;;;;;;;19.89;47.85;101216.75;5051303;28;20017;-77
2023/10/02 04:58:14;;;;;;;19.95;5.15;;;;;;;19.82;48.27;101229.38;4950763;29;20619;-78
2023/10/02 05:03:26;;;;;;;13.73;4.32;;;;;;;19.70;48.44;101227.13;4950360;29;20038;-76
2023/10/02 05:05:58;;;;;;;21.02;5.32;;;;;;;19.61;48.42;101218.09;4950179;29;20031;-77
2023/10/02 05:08:40;;;;;;;14.85;5.05;;;;;;;19.76;49.42;101231.91;4950445;29;20467;-78
2023/10/02 05:11:08;;;;;;;25.05;7.32;;;;;;;19.76;49.79;101221.00;4949950;29;20035;-76
2023/10/02 05:13:59;;;;;;;33.22;6.53;;;;;;;19.80;49.67;101222.38;4949939;29;20491;-77
2023/10/02 05:16:34;;;;;;;35.50;6.82;;;;;;;19.42;50.17;101175.59;4950228;29;20126;-76
2023/10/02 05:19:04;;;;;;;27.38;5.93;;;;;;;19.63;50.57;101220.66;4949958;29;20027;-77
2023/10/02 05:21:36;;;;;;;21.55;6.00;;;;;;;19.58;51.83;101203.94;4950016;29;20554;-75
2023/10/02 05:24:11;;;;;;;16.00;5.53;;;;;;;19.42;54.27;101213.78;4949847;29;20127;-75
2023/10/02 05:26:39;;;;;;;29.27;6.32;;;;;;;19.22;53.60;101196.00;4950010;29;20437;-77
2023/10/02 05:29:12;;;;;;;25.48;6.75;;;;;;;19.02;55.12;101211.78;4949635;29;20405;-76
2023/10/02 05:31:40;;;;;;;17.55;5.22;;;;;;;18.83;54.68;101189.41;4949837;29;20428;-76
2023/10/02 05:34:13;;;;;;;19.20;6.47;;;;;;;18.74;55.51;101204.03;4977859;28;20040;-77
2023/10/02 05:37:03;;;;;;;21.85;6.25;;;;;;;18.94;54.99;101243.63;5050051;28;20029;-75
2023/10/02 05:39:46;;;;;;;20.30;6.75;;;;;;;18.90;55.51;101258.59;5049432;28;20350;-78
2023/10/02 05:42:14;;;;;;;29.70;7.63;;;;;;;18.93;55.92;101261.84;5049768;28;20147;-77
2023/10/02 05:44:43;;;;;;;23.92;6.07;;;;;;;19.00;56.70;101256.59;5050016;28;20044;-76
2023/10/02 05:47:11;;;;;;;17.80;6.47;;;;;;;18.98;56.78;101231.38;5050155;28;20032;-77
2023/10/02 05:49:49;;;;;;;16.73;5.72;;;;;;;19.07;56.33;101240.44;5049878;28;20033;-76
2023/10/02 05:52:20;;;;;;;19.40;6.32;;;;;;;19.02;55.60;101254.53;5050062;28;20025;-76
2023/10/02 05:54:55;;;;;;;27.40;7.20;;;;;;;19.18;54.78;101257.34;5049957;28;20033;-77
2023/10/02 05:57:22;;;;;;;19.00;6.32;;;;;;;19.16;55.28;101261.25;5050054;28;20033;-77
2023/10/02 05:59:54;;;;;;;28.30;7.05;;;;;;;19.13;54.37;101262.44;5050036;28;20024;-76
2023/10/02 06:02:22;;;;;;;16.40;4.57;;;;;;;19.04;53.76;101271.63;5050583;28;20033;-77
2023/10/02 06:05:01;;;;;;;33.83;5.45;;;;;;;18.95;53.46;101272.59;5049209;28;20037;-77
2023/10/02 06:07:46;;;;;;;26.00;5.28;;;;;;;19.10;54.09;101290.06;5049831;28;20091;-77
2023/10/02 06:10:27;;;;;;;29.15;6.32;;;;;;;19.17;54.28;101307.47;5049765;28;20041;-77
2023/10/02 06:13:03;;;;;;;27.73;6.82;;;;;;;19.20;55.70;101295.38;5049832;28;20103;-75
2023/10/02 06:15:46;;;;;;;22.90;5.82;;;;;;;19.30;54.30;101315.16;5049683;28;20127;-77
2023/10/02 06:18:33;;;;;;;48.05;6.47;;;;;;;19.23;54.12;101287.72;5049525;28;20526;-78
2023/10/02 06:21:03;;;;;;;24.08;7.03;;;;;;;19.28;53.68;101311.75;4987953;28;20098;-77
2023/10/02 06:23:37;;;;;;;20.77;6.60;;;;;;;19.09;53.56;101293.78;4987849;28;20493;-76
2023/10/02 06:26:09;;;;;;;22.02;5.75;;;;;;;19.01;53.43;101296.47;4987856;28;20049;-77
2023/10/02 06:28:38;;;;;;;22.58;5.43;;;;;;;18.84;54.15;101291.94;4987812;28;20026;-77
2023/10/02 06:31:06;;;;;;;37.10;7.22;;;;;;;19.07;54.53;101322.25;4988040;28;20108;-79
2023/10/02 06:33:38;;;;;;;24.70;6.32;;;;;;;19.10;53.73;101328.22;4988033;28;20526;-76
2023/10/02 06:36:07;;;;;;;25.27;6.00;;;;;;;19.23;53.40;101338.69;4971788;28;20030;-75
2023/10/02 06:38:33;;;;;;;40.83;7.85;;;;;;;19.16;53.54;101333.03;4954949;28;20046;-76
2023/10/02 06:41:07;;;;;;;27.42;7.53;;;;;;;19.07;53.55;101339.47;4987584;28;20022;-78
2023/10/02 06:43:33;;;;;;;25.20;5.78;;;;;;;19.12;53.17;101328.91;4987065;28;20098;-75
2023/10/02 06:46:13;;;;;;;19.17;5.88;;;;;;;19.08;52.89;101341.16;4987531;28;20042;-76
2023/10/02 06:48:41;;;;;;;39.28;8.63;;;;;;;19.09;53.25;101342.88;4987670;28;20494;-77
2023/10/02 06:51:07;;;;;;;23.52;5.35;;;;;;;19.06;53.31;101356.81;4987588;28;20101;-77
2023/10/02 06:53:33;;;;;;;58.83;11.45;;;;;;;19.08;53.08;101341.16;4987859;28;20534;-77
2023/10/02 06:55:58;;;;;;;48.33;9.32;;;;;;;18.95;53.85;101340.75;4987887;28;20038;-76
2023/10/02 06:58:28;;;;;;;21.38;5.63;;;;;;;18.53;53.72;101258.06;5013861;28;20041;-76
2023/10/02 07:00:54;;;;;;;43.33;8.30;;;;;;;19.10;53.78;101347.31;5029597;28;20034;-77
2023/10/02 07:03:21;;;;;;;17.25;5.97;;;;;;;19.19;53.42;101338.16;5029361;28;20147;-77
2023/10/02 07:05:48;;;;;;;23.85;6.80;;;;;;;19.13;53.96;101347.00;5029688;28;20030;-77
2023/10/02 07:08:26;;;;;;;33.13;6.93;;;;;;;19.08;53.63;101352.06;5029521;28;20064;-78
2023/10/02 07:10:53;;;;;;;21.77;6.30;;;;;;;19.15;54.28;101353.13;5028352;28;20040;-76
2023/10/02 07:13:19;;;;;;;32.05;6.63;;;;;;;19.20;54.17;101358.97;5029529;28;20090;-76
2023/10/02 07:15:53;;;;;;;34.38;7.28;;;;;;;19.25;54.08;101353.88;5028827;28;20594;-77
2023/10/02 07:18:18;;;;;;;35.30;9.05;;;;;;;19.22;54.22;101358.78;5033141;28;20585;-75
2023/10/02 07:20:44;;;;;;;23.85;5.97;;;;;;;19.23;54.47;101358.63;5032663;28;20104;-75
2023/10/02 07:23:13;;;;;;;18.50;5.55;;;;;;;19.22;54.24;101375.16;5032506;28;20025;-75
2023/10/02 07:25:39;;;;;;;23.95;6.50;;;;;;;19.18;54.36;101365.56;5013964;28;20429;-76
2023/10/02 07:28:05;;;;;;;25.27;6.05;;;;;;;19.23;53.88;101371.41;5033104;28;20087;-77
2023/10/02 07:30:32;;;;;;;24.65;6.57;;;;;;;19.14;54.21;101365.06;5031506;28;20079;-78
2023/10/02 07:33:04;;;;;;;30.02;6.07;;;;;;;19.15;54.24;101374.94;5032623;28;20127;-76
2023/10/02 07:35:29;;;;;;;22.60;6.53;;;;;;;19.19;54.49;101376.34;5032384;28;20521;-77
2023/10/02 07:37:58;;;;;;;19.27;6.28;;;;;;;19.22;54.07;101359.66;5032910;28;20120;-77
2023/10/02 07:40:27;;;;;;;35.10;9.73;;;;;;;19.37;53.96;101378.97;5032422;28;20069;-76
2023/10/02 07:43:06;;;;;;;39.38;7.97;;;;;;;19.41;54.33;101373.09;5038448;28;20041;-76
2023/10/02 07:45:32;;;;;;;21.17;7.30;;;;;;;19.19;54.53;101368.16;5052189;28;20512;-77
2023/10/02 07:48:11;;;;;;;44.67;12.57;;;;;;;19.30;54.27;101373.31;5052332;28;20482;-77
2023/10/02 07:50:44;;;;;;;31.30;9.27;;;;;;;19.38;54.39;101387.00;5052139;28;20118;-77
2023/10/02 07:53:10;;;;;;;29.88;7.55;;;;;;;19.40;54.00;101379.53;5052079;28;20413;-77
2023/10/02 07:55:42;;;;;;;68.38;15.05;;;;;;;19.40;54.50;101379.53;5051829;28;20028;-76
2023/10/02 07:58:09;;;;;;;44.05;8.13;;;;;;;19.34;54.51;101352.88;5051975;28;20037;-77
2023/10/02 08:00:41;;;;;;;26.08;7.25;;;;;;;19.60;54.35;101379.28;5052017;28;20107;-77
2023/10/02 08:03:31;;;;;;;24.67;6.60;;;;;;;19.68;54.33;101388.34;5034295;28;20032;-77
2023/10/02 08:06:20;;;;;;;20.10;5.93;;;;;;;19.76;54.24;101384.78;5051490;28;20420;-77
2023/10/02 08:08:46;;;;;;;34.83;7.03;;;;;;;19.63;53.96;101357.13;5051797;28;20036;-76
2023/10/02 08:11:11;;;;;;;22.63;6.63;;;;;;;19.76;53.82;101384.78;5051594;28;20108;-77
2023/10/02 08:13:39;;;;;;;25.90;7.82;;;;;;;19.71;54.08;101376.25;5052218;28;20041;-76
2023/10/02 08:16:12;;;;;;;25.10;6.15;;;;;;;19.75;54.05;101383.97;5051790;28;20028;-76
2023/10/02 08:18:57;;;;;;;28.88;6.10;;;;;;;19.81;53.99;101382.44;5051874;28;20077;-76
2023/10/02 08:21:33;;;;;;;33.47;8.88;;;;;;;19.86;54.26;101374.59;5051216;28;20028;-77
2023/10/02 08:24:01;;;;;;;37.55;6.68;;;;;;;19.96;54.24;101375.31;5051812;28;20059;-77
2023/10/02 08:26:27;;;;;;;53.17;8.50;;;;;;;19.99;54.31;101378.56;5051285;28;20412;-78
2023/10/02 08:28:53;;;;;;;56.22;9.95;;;;;;;20.10;53.82;101377.38;5050712;28;20025;-76
2023/10/02 08:31:19;;;;;;;65.20;10.80;;;;;;;20.12;53.62;101361.66;5051006;28;20033;-77
2023/10/02 08:33:45;;;;;;;29.10;7.53;;;;;;;20.12;53.62;101363.56;5051244;28;20037;-77
2023/10/02 08:36:12;;;;;;;38.92;7.05;;;;;;;20.25;53.61;101374.81;5051192;28;20033;-77
2023/10/02 08:38:40;;;;;;;31.27;7.30;;;;;;;20.32;53.30;101365.81;5050990;28;20041;-78
2023/10/02 08:41:08;;;;;;;26.90;6.68;;;;;;;20.44;53.22;101359.00;5051065;28;20017;-77
2023/10/02 08:43:43;;;;;;;23.20;6.70;;;;;;;20.50;53.17;101362.91;5051170;28;20049;-78
2023/10/02 08:46:19;;;;;;;38.72;6.95;;;;;;;20.29;53.17;101344.31;5050936;28;20025;-77
2023/10/02 08:48:45;;;;;;;23.25;6.95;;;;;;;20.53;53.00;101360.69;5051029;28;20032;-76
2023/10/02 08:51:11;;;;;;;36.30;8.70;;;;;;;20.48;52.79;101360.38;5051277;28;20024;-75
2023/10/02 08:53:37;;;;;;;30.02;6.82;;;;;;;20.47;53.11;101363.25;4999540;28;20045;-76
2023/10/02 08:56:05;;;;;;;19.48;6.80;;;;;;;20.62;52.90;101356.06;5051440;28;20025;-76
2023/10/02 08:58:31;;;;;;;24.08;7.13;;;;;;;20.49;52.91;101362.06;5051174;28;20478;-77
2023/10/02 09:03:41;;;;;;;39.42;9.30;;;;;;;20.44;53.66;101364.47;5051671;28;20028;-76
2023/10/02 09:06:25;;;;;;;38.63;11.80;;;;;;;20.49;54.02;101356.59;5051079;28;20021;-76
2023/10/02 09:11:36;;;;;;;38.70;10.20;;;;;;;20.59;54.48;101353.69;5050754;28;20036;-77
2023/10/02 09:17:07;;;;;;;25.00;7.47;;;;;;;20.81;54.20;101368.53;5050650;28;20109;-77
2023/10/02 09:19:34;;;;;;;34.38;7.97;;;;;;;20.84;54.02;101357.25;5050371;28;20079;-77
2023/10/02 09:22:11;;;;;;;30.27;7.63;;;;;;;20.69;54.24;101373.50;5050363;28;20466;-76
2023/10/02 09:24:40;;;;;;;25.70;8.23;;;;;;;20.69;54.37;101372.66;5050364;28;20105;-77
2023/10/02 09:27:27;;;;;;;31.73;8.85;;;;;;;20.68;54.57;101360.84;5050431;28;20033;-77
2023/10/02 09:30:17;;;;;;;30.25;7.63;;;;;;;20.80;54.33;101358.59;5050198;28;20036;-76
2023/10/02 09:32:51;;;;;;;32.17;9.00;;;;;;;20.83;54.29;101371.94;5050260;28;20083;-76
2023/10/02 09:35:39;;;;;;;32.40;9.40;;;;;;;20.80;54.02;101336.72;4998268;28;20044;-77
2023/10/02 09:38:15;;;;;;;32.67;8.80;;;;;;;21.17;53.77;101358.91;5050679;28;20025;-77
2023/10/02 09:40:54;;;;;;;36.28;9.13;;;;;;;21.36;53.04;101360.38;5049973;28;20060;-77
2023/10/02 09:43:22;;;;;;;21.95;7.45;;;;;;;21.43;52.69;101364.13;5049946;28;20045;-76
2023/10/02 09:45:49;;;;;;;27.52;7.57;;;;;;;21.54;52.14;101364.59;5050255;28;20025;-78
2023/10/02 09:51:14;;;;;;;22.73;7.50;;;;;;;21.82;51.51;101364.97;5050184;28;20113;-78
2023/10/02 09:54:04;;;;;;;36.00;8.23;;;;;;;21.94;50.70;101358.06;5050282;28;20597;-78
2023/10/02 09:56:54;;;;;;;32.47;7.75;;;;;;;22.19;50.06;101353.28;5049633;28;20039;-77
2023/10/02 09:59:22;;;;;;;24.65;7.22;;;;;;;22.24;48.71;101326.16;4949502;29;20126;-76
2023/10/02 10:07:52;;;;;;;19.23;7.28;;;;;;;22.43;46.42;101338.53;4911270;29;20040;-77
2023/10/02 10:10:47;;;;;;;23.77;6.47;;;;;;;22.41;45.89;101330.50;4910796;29;20488;-78
2023/10/02 10:13:24;;;;;;;22.20;6.07;;;;;;;22.52;45.58;101332.78;4910970;29;20072;-79
2023/10/02 10:15:51;;;;;;;31.42;6.55;;;;;;;22.51;45.70;101320.09;4910935;29;20625;-78
2023/10/02 10:18:17;;;;;;;25.45;7.03;;;;;;;22.53;45.84;101307.09;4911292;29;20035;-77
2023/10/02 10:20:44;;;;;;;22.98;6.28;;;;;;;22.82;45.37;101332.84;4910909;29;20044;-79
2023/10/02 10:23:31;;;;;;;16.45;5.57;;;;;;;22.86;45.07;101323.22;4910908;29;20037;-76
2023/10/02 10:26:07;;;;;;;22.27;5.68;;;;;;;22.89;44.77;101318.22;4910657;29;20095;-77
2023/10/02 10:28:33;;;;;;;19.08;5.85;;;;;;;23.03;44.45;101324.75;4910684;29;20153;-77
2023/10/02 10:31:02;;;;;;;24.23;5.68;;;;;;;23.02;43.87;101320.31;4910913;29;20047;-78
2023/10/02 10:33:33;;;;;;;20.35;4.97;;;;;;;22.99;43.84;101323.44;4910920;29;20241;-78
2023/10/02 10:36:02;;;;;;;18.20;5.53;;;;;;;23.05;43.38;101323.53;4935781;28;20049;-78
2023/10/02 10:38:38;;;;;;;11.43;5.00;;;;;;;23.10;43.51;101320.22;4987783;28;20140;-76
2023/10/02 10:41:09;;;;;;;21.75;5.30;;;;;;;23.22;43.14;101316.81;5036153;28;20052;-78
2023/10/02 10:46:17;;;;;;;15.93;6.30;;;;;;;23.49;42.73;101312.53;5049372;28;20052;-77
2023/10/02 10:48:45;;;;;;;16.77;5.25;;;;;;;23.76;42.44;101309.06;5049212;28;20025;-77
2023/10/02 10:51:21;;;;;;;19.23;5.05;;;;;;;23.90;41.24;101303.72;5049338;28;20025;-79
2023/10/02 10:53:51;;;;;;;16.20;5.07;;;;;;;23.83;41.47;101274.28;5021236;28;20051;-77
2023/10/02 10:56:19;;;;;;;27.75;5.93;;;;;;;24.05;42.12;101301.75;5053522;28;20732;-77
2023/10/02 10:59:10;;;;;;;25.00;8.00;;;;;;;24.14;41.45;101281.38;5053738;28;20035;-77
2023/10/02 11:01:37;;;;;;;11.07;5.75;;;;;;;24.25;40.46;101283.56;5053095;28;20108;-77
2023/10/02 11:04:03;;;;;;;19.58;5.35;;;;;;;24.09;39.40;101242.59;5053712;28;20572;-79
2023/10/02 11:06:29;;;;;;;22.40;6.35;;;;;;;24.31;37.49;101267.13;5053883;28;20107;-78
2023/10/02 11:09:12;;;;;;;17.50;4.88;;;;;;;24.47;36.99;101265.16;5053916;28;20441;-78
2023/10/02 11:11:49;;;;;;;33.00;6.80;;;;;;;24.63;36.46;101265.72;5053748;28;20784;-76
2023/10/02 11:14:22;;;;;;;27.77;6.15;;;;;;;24.75;35.21;101269.59;5034945;28;20456;-77
2023/10/02 11:16:52;;;;;;;65.72;12.80;;;;;;;24.94;34.53;101269.94;5052879;28;20025;-77
2023/10/02 11:22:16;;;;;;;22.65;6.20;;;;;;;25.12;33.94;101270.25;5052683;28;20033;-77
2023/10/02 11:24:53;;;;;;;23.15;5.10;;;;;;;25.29;33.02;101274.34;5016964;28;20045;-77
2023/10/02 11:27:20;;;;;;;18.58;5.60;;;;;;;25.10;33.14;101234.69;5052774;28;20052;-78
2023/10/02 11:30:03;;;;;;;40.00;7.97;;;;;;;25.43;33.01;101273.38;5052824;28;20126;-77
2023/10/02 11:33:08;;;;;;;;;;;;;;;25.54;32.28;101264.53;5053096;28;20055;-78
2023/10/02 11:35:41;;;;;;;20.50;5.72;;;;;;;25.69;32.38;101284.50;5051752;28;19954;-76
2023/10/02 11:38:09;;;;;;;25.20;5.88;;;;;;;25.88;32.43;101271.84;5019097;28;20124;-77
2023/10/02 11:40:36;;;;;;;18.27;5.97;;;;;;;25.98;31.55;101264.88;5052685;28;20035;-77
2023/10/02 11:43:01;;;;;;;19.90;5.65;;;;;;;25.89;31.72;101277.16;5052555;28;20061;-76
2023/10/02 11:45:32;;;;;;;27.85;6.57;;;;;;;26.07;31.87;101270.19;5052679;28;20455;-76
2023/10/02 11:47:58;;;;;;;17.92;5.78;;;;;;;26.01;31.71;101247.06;5053855;28;20465;-77
2023/10/02 11:50:24;;;;;;;32.47;6.82;;;;;;;26.35;31.47;101262.59;5053081;28;20108;-77
2023/10/02 11:52:50;;;;;;;14.50;6.00;;;;;;;26.44;30.66;101277.88;5068055;28;20024;-77
2023/10/02 11:55:18;;;;;;;18.80;6.60;;;;;;;26.51;30.36;101278.72;5078154;28;20065;-76
2023/10/02 11:57:51;;;;;;;37.65;6.68;;;;;;;26.46;30.31;101270.22;5077263;28;20036;-76
2023/10/02 12:00:20;;;;;;;43.78;6.30;;;;;;;26.36;30.70;101275.34;5077242;28;20080;-77
2023/10/02 12:02:46;;;;;;;15.43;5.25;;;;;;;26.35;30.82;101279.16;5061925;28;20039;-78
2023/10/02 12:05:12;;;;;;;27.02;5.40;;;;;;;26.43;30.71;101268.75;5052136;28;20108;-77
2023/10/02 12:07:39;;;;;;;26.80;7.30;;;;;;;26.30;30.66;101245.81;5052655;28;20202;-77
2023/10/02 12:10:06;;;;;;;30.42;5.68;;;;;;;26.37;30.59;101275.09;5053134;28;20393;-76
2023/10/02 12:12:31;;;;;;;20.50;5.72;;;;;;;26.24;30.65;101264.06;5052959;28;20037;-77
2023/10/02 12:14:57;;;;;;;22.08;6.05;;;;;;;26.19;30.83;101266.63;5052390;28;20076;-77
2023/10/02 12:17:23;;;;;;;13.90;5.22;;;;;;;25.97;31.25;101281.59;5052196;28;20048;-77
2023/10/02 12:19:50;;;;;;;10.85;4.75;;;;;;;25.88;31.19;101278.22;5052023;28;20504;-77
2023/10/02 12:22:15;;;;;;;24.50;6.05;;;;;;;25.89;31.21;101279.06;5051725;28;20091;-76
2023/10/02 12:24:41;;;;;;;24.30;6.90;;;;;;;25.89;31.68;101285.44;5051747;28;20021;-75
2023/10/02 12:27:12;;;;;;;14.25;5.45;;;;;;;25.82;31.17;101275.44;5051691;28;20408;-77
2023/10/02 12:29:39;;;;;;;22.77;5.45;;;;;;;25.78;31.05;101255.69;5051950;28;20075;-77
2023/10/02 12:32:05;;;;;;;25.23;5.10;;;;;;;25.65;31.15;101255.69;5051410;28;20033;-77